Time,TemperatureF,DewpointF,PressureIn,WindDirection,WindDirectionDegrees,WindSpeedMPH,WindSpeedGustMPH,Humidity,HourlyPrecipIn,Conditions,Clouds,dailyrainin,SoftwareType,DateUTC
2013-02-14 00:01:00,29.4,26.6,29.99,North,0,0.0,0.0,89,0.00,,,0.00,WUHU215HW,2013-02-13 23:01:00,
2013-02-14 00:06:00,29.4,26.6,29.99,North,0,0.0,0.0,89,0.00,,,0.00,WUHU215HW,2013-02-13 23:06:00,
2013-02-14 00:42:00,28.9,26.1,30.00,North,0,0.0,0.0,89,0.00,,,0.00,WUHU215HW,2013-02-13 23:42:00,
2013-02-14 00:47:00,28.9,26.1,30.00,North,0,0.0,0.0,89,0.00,,,0.00,WUHU215HW,2013-02-13 23:47:00,
2013-02-14 00:52:00,28.9,25.8,30.00,North,0,0.0,0.0,88,0.00,,,0.00,WUHU215HW,2013-02-13 23:52:00,
2013-02-14 00:57:00,28.9,26.1,30.00,North,0,0.0,0.0,89,0.00,,,0.00,WUHU215HW,2013-02-13 23:57:00,
2013-02-14 01:02:00,28.9,25.8,30.00,North,0,0.0,0.0,88,0.00,,,0.00,WUHU215HW,2013-02-14 00:02:00,
2013-02-14 01:07:00,28.9,25.8,30.00,North,0,0.0,0.0,88,0.00,,,0.00,WUHU215HW,2013-02-14 00:07:00,
2013-02-14 20:12:00,37.2,29.3,29.99,North,0,0.0,0.0,73,0.00,,,0.00,WUHU215HW,2013-02-14 19:12:00,
2013-02-14 20:17:00,37.2,29.3,29.99,North,0,0.0,0.0,73,0.00,,,0.01,WUHU215HW,2013-02-14 19:17:00,
2013-02-14 20:22:00,37.2,29.3,29.99,North,0,0.0,0.0,73,0.00,,,0.01,WUHU215HW,2013-02-14 19:22:00,
2013-02-14 20:45:00,37.2,29.3,30.00,North,0,0.0,0.0,73,0.00,,,0.01,WUHU215HW,2013-02-14 19:45:00,
2013-02-14 20:50:00,37.2,29.6,30.00,North,0,0.0,0.0,74,0.00,,,0.01,WUHU215HW,2013-02-14 19:50:00,
2013-02-14 20:55:00,37.4,29.5,30.00,North,0,0.0,0.0,73,0.00,,,0.01,WUHU215HW,2013-02-14 19:55:00,
2013-02-14 21:00:00,37.5,29.6,30.00,North,0,0.0,0.0,73,0.00,,,0.01,WUHU215HW,2013-02-14 20:00:00,
2013-02-14 21:05:00,37.5,29.9,30.00,North,0,0.0,0.0,74,0.00,,,0.01,WUHU215HW,2013-02-14 20:05:00,
2013-02-14 21:10:00,37.5,29.9,30.00,North,0,0.0,0.0,74,0.00,,,0.01,WUHU215HW,2013-02-14 20:10:00,
2013-02-14 21:15:00,37.5,29.9,30.00,North,0,0.0,0.0,74,0.00,,,0.01,WUHU215HW,2013-02-14 20:15:00,
2013-02-14 21:20:00,37.4,29.8,29.99,North,0,0.0,0.0,74,0.00,,,0.01,WUHU215HW,2013-02-14 20:20:00,
2013-02-14 21:25:00,37.4,30.2,30.00,North,0,0.0,0.0,75,0.00,,,0.01,WUHU215HW,2013-02-14 20:25:00,
2013-02-14 21:30:00,37.4,29.8,30.00,North,0,0.0,0.0,74,0.00,,,0.01,WUHU215HW,2013-02-14 20:30:00,
2013-02-14 21:35:00,37.4,30.2,30.00,North,0,0.0,0.0,75,0.00,,,0.01,WUHU215HW,2013-02-14 20:35:00,
2013-02-14 21:40:00,37.2,30.4,30.00,North,0,0.0,0.0,76,0.00,,,0.01,WUHU215HW,2013-02-14 20:40:00,
2013-02-14 21:45:00,37.4,30.5,30.00,North,0,0.0,0.0,76,0.00,,,0.01,WUHU215HW,2013-02-14 20:45:00,
2013-02-14 21:50:00,37.4,30.2,30.00,North,0,0.0,0.0,75,0.00,,,0.01,WUHU215HW,2013-02-14 20:50:00,
2013-02-14 21:55:00,37.4,30.2,29.99,North,0,0.0,0.0,75,0.00,,,0.01,WUHU215HW,2013-02-14 20:55:00,
2013-02-14 22:00:00,37.4,30.2,29.99,North,0,0.0,0.0,75,0.00,,,0.01,WUHU215HW,2013-02-14 21:00:00,
2013-02-14 22:05:00,37.2,30.0,29.99,North,0,0.0,0.0,75,0.00,,,0.01,WUHU215HW,2013-02-14 21:05:00,
2013-02-14 22:10:00,37.0,29.4,29.99,North,0,0.0,0.0,74,0.00,,,0.01,WUHU215HW,2013-02-14 21:10:00,
2013-02-14 22:15:00,37.0,29.4,29.99,North,0,0.0,0.0,74,0.00,,,0.01,WUHU215HW,2013-02-14 21:15:00,
2013-02-14 22:20:00,36.8,29.2,29.99,North,0,0.0,0.0,74,0.00,,,0.01,WUHU215HW,2013-02-14 21:20:00,
2013-02-14 22:25:00,36.6,29.4,29.99,North,0,0.0,0.0,75,0.00,,,0.01,WUHU215HW,2013-02-14 21:25:00,
2013-02-14 22:30:00,36.6,29.1,29.99,North,0,0.0,0.0,74,0.00,,,0.01,WUHU215HW,2013-02-14 21:30:00,
2013-02-14 22:35:00,36.5,29.0,29.99,North,0,0.0,0.0,74,0.00,,,0.01,WUHU215HW,2013-02-14 21:35:00,
2013-02-14 22:40:00,36.5,29.0,29.99,North,0,0.0,0.0,74,0.00,,,0.01,WUHU215HW,2013-02-14 21:40:00,
2013-02-14 22:45:00,36.5,29.0,29.99,North,0,0.0,0.0,74,0.00,,,0.01,WUHU215HW,2013-02-14 21:45:00,
2013-02-14 22:50:00,36.6,29.1,29.99,North,0,0.0,0.0,74,0.00,,,0.01,WUHU215HW,2013-02-14 21:50:00,
2013-02-14 22:55:00,36.5,29.0,29.99,North,0,0.0,0.0,74,0.00,,,0.01,WUHU215HW,2013-02-14 21:55:00,
2013-02-14 23:00:00,36.3,28.8,29.99,North,0,0.0,0.0,74,0.00,,,0.01,WUHU215HW,2013-02-14 22:00:00,
2013-02-14 23:05:00,36.3,28.8,29.98,North,0,0.0,0.0,74,0.00,,,0.01,WUHU215HW,2013-02-14 22:05:00,
2013-02-14 23:10:00,36.3,28.8,29.98,North,0,0.0,0.0,74,0.00,,,0.01,WUHU215HW,2013-02-14 22:10:00,
2013-02-14 23:15:00,36.3,28.8,29.98,North,0,0.0,0.0,74,0.00,,,0.01,WUHU215HW,2013-02-14 22:15:00,
2013-02-14 23:20:00,36.1,28.9,29.98,North,0,0.0,0.0,75,0.00,,,0.01,WUHU215HW,2013-02-14 22:20:00,
2013-02-14 23:25:00,36.1,28.9,29.98,North,0,0.0,0.0,75,0.00,,,0.01,WUHU215HW,2013-02-14 22:25:00,
2013-02-14 23:30:00,36.1,29.3,29.98,North,0,0.0,0.0,76,0.00,,,0.01,WUHU215HW,2013-02-14 22:30:00,
2013-02-14 23:35:00,36.1,29.3,29.98,North,0,0.0,0.0,76,0.00,,,0.01,WUHU215HW,2013-02-14 22:35:00,
2013-02-14 23:40:00,36.1,29.3,29.98,North,0,0.0,0.0,76,0.00,,,0.01,WUHU215HW,2013-02-14 22:40:00,
2013-02-14 23:45:00,36.1,29.3,29.98,North,0,0.0,0.0,76,0.00,,,0.01,WUHU215HW,2013-02-14 22:45:00,
2013-02-14 23:50:00,36.1,29.3,29.98,North,0,0.0,0.0,76,0.00,,,0.01,WUHU215HW,2013-02-14 22:50:00,
2013-02-14 23:55:00,35.9,29.4,29.98,North,0,0.0,0.0,77,0.00,,,0.01,WUHU215HW,2013-02-14 22:55:00,